Share

Wabasha, MN (55981)

Rics Igloo7 (KMNLAKEC3) Elev 728 ft | 44.47 °N, 92.31 °W | Change Station
Active Advisory: Flood Warning

Current weather conditions updated 0 second ago

Clear
Clear
31.2 °F
Feels Like 31 °F
N
1.0
Wind Variable Wind from North
Gusts 1.0 mph
Sunrise 6:20 AM
Sunset 7:55 PM
Moon Waning Gibbous

Tomorrow is forecast to be Much Warmer than today.

Pressure 30.33 in
Visibility 10.0 miles
Clouds Clear
Windchill 31 °F
Dew Point 29 °F
Humidity 91%
Rainfall 0.14 in
Snow Depth Not available.
UV 0 out of 16
Pollen 7.00 out of 12
Air Quality Not available.
Flu Activity Sporadic
METAR KONA 180341Z AUTO 00000KT 10SM CLR 02/M02 A3033 RMK AO2

More Conditions Fewer Conditions

Pressure 30.33 in
Visibility 10.0 miles
Clouds Clear
Windchill 31 °F
Dew Point 29 °F
Humidity 91%
Rainfall 0.14 in
Snow Depth Not available.
UV 0 out of 16
Pollen 7.00 out of 12
Air Quality Not available.
Flu Activity Sporadic
METAR KONA 180341Z AUTO 00000KT 10SM CLR 02/M02 A3033 RMK AO2

More Conditions Fewer Conditions

10-Day Forecast

Almanac

Astronomy

Apr. 17, 2014 Rise Set
Actual Time 6:20 AM CDT 7:55 PM CDT
Civil Twilight 5:50 AM CDT 8:25 PM CDT
Nautical Twilight 5:13 AM CDT 9:02 PM CDT
Astronomical Twilight 4:34 AM CDT 9:42 PM CDT
Moon 10:46 PM CDT (4/17) 7:49 AM CDT (4/17)
Length of Visible Light 14h 35m
Length of Day
13h 34m
Tomorrow will be 2m 54s longer.
Waning Gibbous, 91% of the Moon is Illuminated
Today
Waning Gibbous
Apr 22
Last Quarter
Apr 29
New
May 6
First Quarter
May 14
Full

Today's Extremes

State Highs State Lows

Community

  • SUNRISE THROUGH THE TREES.
    SUNRISE THROUGH THE TREES.
  • Dog Wood Blossoms
    Dog Wood Blossoms
  • Morning Light
    Morning Light
  • New Day
    New Day
  • Lake Michigan Sunrise
    Lake Michigan Sunrise

WunderPhotos

Upload Photos

1,702,244 photos uploaded!

WunderBlogs® & News

Nearby

Snow Depth

Station Depth Elevation
No new snow has been reported.

Coastal Water Temperatures

Place Temperature
No Stations Reporting

Earthquake Activity

City Distance Mag. Time & Date
No recent earthquake activity has been reported nearby.
Minimum magnitude displayed is 2.5.

Nearby Weather Stations

Station Location Temp. Windchill Dew Point Humidity Wind Precip. Elev Updated Type
Rics Igloo7, Lake City, MN 31.2 °F 31 °F 29 °F 91% North  at  1.0 mph 0.00 in / hr 728 ft 10:51 PM CDT Rapid Fire
SIGHT-SEA-ER II, Lake City, MN 29.9 °F 30 °F 28 °F 91% ESE  at  0.0 mph 0.00 in / hr 659 ft 10:48 PM CDT Normal
Minnesota, Altura, MN 32.9 °F 33 °F 25 °F 73% North  at  0.0 mph 0.00 in / hr 1122 ft 10:51 PM CDT Rapid Fire
SE Minn, Lake City, MN 30.9 °F 31 °F 27 °F 86% East  at  0.0 mph 0.00 in / hr 945 ft 10:50 PM CDT Rapid Fire

Show More Stations Show Fewer Stations

What do you think?

We're not finished. Please let us know what you like, what you don't like, and what you are still missing.